Vliegveldwaarnemingen Nederland - (AUTO) METAR

Luchtvaartmeteorologische informatie voor operationeel gebruik en vluchtvoorbereiding is beschikbaar op www.luchtvaartmeteo.nl.

ZCZC
SA140555 EHFS     VLISSINGEN AWS   NLD   8 m.
METAR EHFS 140555Z AUTO 20004KT 3400 BR BKN005/// 21/20 Q1011=

ZCZC
SA140555 EHSG     BSA   NLD   43 m.
METAR EHSG 140555Z AUTO 29006KT //// // OVC000/// 18/18 Q1011 RE//=

ZCZC
SA140625 EHKD     DE KOOY/DE KOOY   NLD   1 m.
METAR EHKD 140625Z AUTO 08003KT 040V130 9999 -RA BKN015CB SCT091
OVC100 20/19 Q1011
WHT TEMPO 3500 TSRA BKN060CB BKN100=

ZCZC
SA140625 EHFD     F3-FB-1   NLD   50 m.
METAR EHFD 140625Z AUTO /////KT //// // NSC 20/17 Q1013 RE//=

ZCZC
SA140625 EHAM     AMSTERDAM/SCHIPHOL   NLD   -3 m.
METAR EHAM 140625Z 15006KT 2800 BR SCT043 22/21 Q1011 BECMG 5000=

ZCZC
SA140625 EHVL     VLIELAND   NLD   10 m.
METAR EHVL 140625Z AUTO 05002KT 9999 -SHRA FEW015CB BKN063 BKN069
21/19 Q1011 REDZ BLU=

ZCZC
SA140625 EHJR     K13-A   NLD   37 m.
METAR EHJR 140625Z AUTO 00000KT //// // ///////// 20/19 Q1012 RE//
W19/H8=

ZCZC
SA140625 EHLE     LELYSTAD/LELYSTAD   NLD   -3 m.
METAR EHLE 140625Z AUTO 16003KT 120V190 9999 NSC 21/19 Q1011 NOSIG=

ZCZC
SA140625 EHLW     LEEUWARDEN/LEEUWARDEN   NLD   1 m.
METAR EHLW 140625Z AUTO 07004KT 010V110 9999 -RA FEW015CB SCT092
OVC100 20/19 Q1012 RERA REDZ BLU=

ZCZC
SA140625 EHDL     ARNHEM/DEELEN   NLD   48 m.
METAR EHDL 140625Z AUTO VRB02KT 4500 BR SCT240 BKN330 20/20 Q1012 GRN=

ZCZC
SA140625 EHGG     GRONINGEN/EELDE   NLD   5 m.
METAR EHGG 140625Z AUTO VRB01KT 8000 -RA FEW015CB 20/19 Q1012 TEMPO
6000 TSRA SCT040CB=

ZCZC
SA140625 EHSC     LICHTEILAND GOEREE   NLD   22 m.
METAR EHSC 140625Z AUTO 25003KT 170V280 0800 FG ///////// 19/19 Q1011
W21/H4=

ZCZC
SA140625 EHSA     EURO PLATFORM   NLD   19 m.
METAR EHSA 140625Z AUTO 23005KT 200V270 0150 DZ ///////// 18/18 Q1012
W18/H5=

ZCZC
SA140625 EHWO     WOENSDRECHT/WOENSDRECHT   NLD   19 m.
METAR EHWO 140625Z AUTO 19004KT 150V230 9999 SCT170 21/19 Q1011 BLU=

ZCZC
SA140625 EHRD     ROTTERDAM/THE HAGUE AIRPORT   NLD   -5 m.
METAR EHRD 140625Z AUTO 12004KT 060V150 3100 BR NSC 22/20 Q1011 BECMG
5000=

ZCZC
SA140625 EHGR     GILZE-RIJEN/GILZE-RIJEN   NLD   14 m.
METAR EHGR 140625Z AUTO VRB01KT 6000 BR FEW130 20/19 Q1012
WHT BECMG 20005KT 9999 NSW=

ZCZC
SA140625 EHEH     EINDHOVEN/EINDHOVEN   NLD   22 m.
METAR EHEH 140625Z AUTO 20006KT 170V230 9999 OVC120 20/18 Q1012
BLU NOSIG=

ZCZC
SA140625 EHVK     VOLKEL/VOLKEL   NLD   21 m.
METAR EHVK 140625Z AUTO VRB02KT 3800 BR NCD 20/19 Q1012 GRN=

ZCZC
SA140625 EHBK     MAASTRICHT/MAASTRICHT-AACHEN   NLD   114 m.
METAR EHBK 140625Z AUTO 18004KT 9999 NSC 21/15 Q1013 NOSIG=

ZCZC
SA140625 EHFZ     F16-A   NLD   43 m.
METAR EHFZ 140625Z AUTO 07021KT 9999 NSC 20/18 Q1013=

ZCZC
SA140625 EHKV     K14-FA-1C   NLD   41 m.
METAR EHKV 140625Z AUTO 16007KT 7000 NSC 21/19 Q1012=

ZCZC
SA140625 EHMG     L9-FF-1   NLD   44 m.
METAR EHMG 140625Z AUTO 09014KT 9999 FEW020 21/19 Q1012=

ZCZC
SA140625 EHMA     AWG-1   NLD   40 m.
METAR EHMA 140625Z AUTO 02003KT 270V060 9999 NSC 21/17 Q1012=

ZCZC
SA140625 EHDV     D15-FA-1   NLD   42 m.
METAR EHDV 140625Z AUTO VRB21KT 9999 NCD 20/17 Q1013=

ZCZC
SA140625 EHAK     A12-CPP   NLD   48 m.
METAR EHAK 140625Z AUTO 05014KT 9999 NCD 18/17 Q1014=

ZCZC
SA140625 EHQE     HOORN-A   NLD   50 m.
METAR EHQE 140625Z AUTO 15010KT 9999 -RA NSC 21/19 Q1011=

ZCZC
SA140625 EHJA     J6-A   NLD   45 m.
METAR EHJA 140625Z AUTO 05019KT 9999 NSC 20/17 Q1012=

ZCZC
SA140625 EHPG     P11-B   NLD   41 m.
METAR EHPG 140625Z AUTO 12011KT 2500 BR FEW001 BKN002 BKN004 19/19
Q1011=

ZCZC
SA140625 EHHW     BUITENGAATS/BG-OHVS2      42 m.
METAR EHHW 140625Z AUTO 09011KT 9999 NSC 20/17 Q1013=

14/08/2020 08.30 uur LT